sensor_id;sensor_type;location;lat;lon;timestamp;pressure;altitude;pressure_sealevel;temperature;humidity
63306;BME280;50735;52.060;1.248;2022-09-30T00:01:54;100543.61;;;10.44;45.68
63306;BME280;50735;52.060;1.248;2022-09-30T00:04:23;100535.11;;;10.42;45.78
63306;BME280;50735;52.060;1.248;2022-09-30T00:06:51;100529.44;;;10.40;46.03
63306;BME280;50735;52.060;1.248;2022-09-30T00:09:19;100526.03;;;10.37;45.93
63306;BME280;50735;52.060;1.248;2022-09-30T00:11:45;100523.08;;;10.32;46.00
63306;BME280;50735;52.060;1.248;2022-09-30T00:14:14;100518.49;;;10.29;45.92
63306;BME280;50735;52.060;1.248;2022-09-30T00:16:42;100517.62;;;10.48;46.10
63306;BME280;50735;52.060;1.248;2022-09-30T00:19:10;100515.43;;;10.49;46.11
63306;BME280;50735;52.060;1.248;2022-09-30T00:21:37;100511.11;;;10.65;46.04
63306;BME280;50735;52.060;1.248;2022-09-30T00:24:05;100509.72;;;10.44;45.86
63306;BME280;50735;52.060;1.248;2022-09-30T00:26:33;100509.84;;;10.39;45.77
63306;BME280;50735;52.060;1.248;2022-09-30T00:29:01;100511.98;;;10.36;45.95
63306;BME280;50735;52.060;1.248;2022-09-30T00:31:30;100510.19;;;10.16;45.94
63306;BME280;50735;52.060;1.248;2022-09-30T00:33:57;100505.47;;;10.12;46.10
63306;BME280;50735;52.060;1.248;2022-09-30T00:36:24;100500.09;;;10.23;46.22
63306;BME280;50735;52.060;1.248;2022-09-30T00:38:51;100498.99;;;10.31;46.59
63306;BME280;50735;52.060;1.248;2022-09-30T00:41:18;100504.59;;;10.22;46.14
63306;BME280;50735;52.060;1.248;2022-09-30T00:43:47;100507.41;;;9.81;46.12
63306;BME280;50735;52.060;1.248;2022-09-30T00:46:18;100508.47;;;10.07;47.10
63306;BME280;50735;52.060;1.248;2022-09-30T00:48:48;100515.83;;;10.00;47.19
63306;BME280;50735;52.060;1.248;2022-09-30T00:51:17;100527.39;;;9.82;46.76
63306;BME280;50735;52.060;1.248;2022-09-30T00:53:46;100538.19;;;9.84;46.84
63306;BME280;50735;52.060;1.248;2022-09-30T00:56:18;100542.58;;;9.59;47.36
63306;BME280;50735;52.060;1.248;2022-09-30T00:58:51;100547.60;;;9.82;47.55
63306;BME280;50735;52.060;1.248;2022-09-30T01:01:20;100555.72;;;9.74;47.96
63306;BME280;50735;52.060;1.248;2022-09-30T01:03:51;100563.65;;;9.71;47.86
63306;BME280;50735;52.060;1.248;2022-09-30T01:06:21;100567.82;;;9.80;47.58
63306;BME280;50735;52.060;1.248;2022-09-30T01:08:49;100570.17;;;9.88;47.83
63306;BME280;50735;52.060;1.248;2022-09-30T01:11:17;100569.91;;;9.66;48.64
63306;BME280;50735;52.060;1.248;2022-09-30T01:13:47;100571.65;;;9.89;48.00
63306;BME280;50735;52.060;1.248;2022-09-30T01:16:26;100569.91;;;9.89;48.42
63306;BME280;50735;52.060;1.248;2022-09-30T01:19:09;100571.22;;;9.88;47.67
63306;BME280;50735;52.060;1.248;2022-09-30T01:21:54;100574.51;;;9.90;47.61
63306;BME280;50735;52.060;1.248;2022-09-30T01:24:39;100568.82;;;9.83;47.28
63306;BME280;50735;52.060;1.248;2022-09-30T01:27:17;100569.64;;;10.00;47.27
63306;BME280;50735;52.060;1.248;2022-09-30T01:30:09;100580.01;;;9.56;47.19
63306;BME280;50735;52.060;1.248;2022-09-30T01:32:49;100578.23;;;9.74;47.45
63306;BME280;50735;52.060;1.248;2022-09-30T01:35:26;100577.65;;;9.51;47.52
63306;BME280;50735;52.060;1.248;2022-09-30T01:38:02;100577.72;;;9.64;47.30
63306;BME280;50735;52.060;1.248;2022-09-30T01:40:39;100578.53;;;9.64;46.89
63306;BME280;50735;52.060;1.248;2022-09-30T01:43:15;100579.83;;;9.63;46.83
63306;BME280;50735;52.060;1.248;2022-09-30T01:45:50;100579.49;;;9.60;46.88
63306;BME280;50735;52.060;1.248;2022-09-30T01:48:24;100587.90;;;9.52;46.90
63306;BME280;50735;52.060;1.248;2022-09-30T01:50:58;100588.40;;;9.40;47.17
63306;BME280;50735;52.060;1.248;2022-09-30T01:53:33;100590.22;;;9.30;46.97
63306;BME280;50735;52.060;1.248;2022-09-30T01:56:07;100593.72;;;9.28;47.37
63306;BME280;50735;52.060;1.248;2022-09-30T01:58:41;100588.56;;;9.24;47.88
63306;BME280;50735;52.060;1.248;2022-09-30T02:01:15;100589.62;;;9.17;47.30
63306;BME280;50735;52.060;1.248;2022-09-30T02:03:47;100590.22;;;9.36;47.11
63306;BME280;50735;52.060;1.248;2022-09-30T02:06:18;100589.17;;;9.03;48.49
63306;BME280;50735;52.060;1.248;2022-09-30T02:08:50;100595.31;;;8.93;48.20
63306;BME280;50735;52.060;1.248;2022-09-30T02:11:21;100593.93;;;9.36;48.00
63306;BME280;50735;52.060;1.248;2022-09-30T02:13:54;100593.79;;;9.18;47.76
63306;BME280;50735;52.060;1.248;2022-09-30T02:16:24;100598.46;;;9.14;47.76
63306;BME280;50735;52.060;1.248;2022-09-30T02:18:54;100596.32;;;9.12;47.57
63306;BME280;50735;52.060;1.248;2022-09-30T02:21:29;100600.94;;;9.09;47.96
63306;BME280;50735;52.060;1.248;2022-09-30T02:24:01;100602.25;;;9.06;48.26
63306;BME280;50735;52.060;1.248;2022-09-30T02:26:31;100607.12;;;9.03;48.53
63306;BME280;50735;52.060;1.248;2022-09-30T02:29:02;100610.20;;;9.01;48.23
63306;BME280;50735;52.060;1.248;2022-09-30T02:31:35;100612.48;;;8.99;48.11
63306;BME280;50735;52.060;1.248;2022-09-30T02:34:05;100613.79;;;8.80;48.39
63306;BME280;50735;52.060;1.248;2022-09-30T02:36:39;100615.95;;;9.02;48.16
63306;BME280;50735;52.060;1.248;2022-09-30T02:39:13;100618.71;;;9.19;48.55
63306;BME280;50735;52.060;1.248;2022-09-30T02:41:44;100615.02;;;9.19;48.38
63306;BME280;50735;52.060;1.248;2022-09-30T02:44:12;100620.41;;;9.16;48.94
63306;BME280;50735;52.060;1.248;2022-09-30T02:46:45;100624.30;;;8.94;48.60
63306;BME280;50735;52.060;1.248;2022-09-30T02:49:19;100621.68;;;8.93;48.76
63306;BME280;50735;52.060;1.248;2022-09-30T02:51:58;100621.57;;;9.08;49.45
63306;BME280;50735;52.060;1.248;2022-09-30T02:54:33;100621.76;;;8.85;48.77
63306;BME280;50735;52.060;1.248;2022-09-30T02:57:11;100621.31;;;9.03;48.72
63306;BME280;50735;52.060;1.248;2022-09-30T02:59:41;100622.81;;;8.85;49.25
63306;BME280;50735;52.060;1.248;2022-09-30T03:02:07;100622.68;;;8.59;48.96
63306;BME280;50735;52.060;1.248;2022-09-30T03:04:35;100623.69;;;8.77;48.68
63306;BME280;50735;52.060;1.248;2022-09-30T03:07:02;100624.28;;;8.98;49.01
63306;BME280;50735;52.060;1.248;2022-09-30T03:09:29;100624.47;;;8.81;49.25
63306;BME280;50735;52.060;1.248;2022-09-30T03:12:03;100626.09;;;8.95;48.79
63306;BME280;50735;52.060;1.248;2022-09-30T03:14:42;100624.03;;;8.92;48.80
63306;BME280;50735;52.060;1.248;2022-09-30T03:17:28;100619.63;;;8.89;49.05
63306;BME280;50735;52.060;1.248;2022-09-30T03:20:11;100619.55;;;8.86;49.22
63306;BME280;50735;52.060;1.248;2022-09-30T03:23:00;100619.87;;;8.89;49.16
63306;BME280;50735;52.060;1.248;2022-09-30T03:25:34;100616.50;;;8.72;49.36
63306;BME280;50735;52.060;1.248;2022-09-30T03:28:16;100613.40;;;8.90;49.58
63306;BME280;50735;52.060;1.248;2022-09-30T03:30:53;100615.87;;;8.90;49.10
63306;BME280;50735;52.060;1.248;2022-09-30T03:33:24;100616.46;;;8.89;49.08
63306;BME280;50735;52.060;1.248;2022-09-30T03:35:58;100612.15;;;8.67;49.11
63306;BME280;50735;52.060;1.248;2022-09-30T03:38:36;100607.10;;;8.65;49.08
63306;BME280;50735;52.060;1.248;2022-09-30T03:41:10;100606.90;;;8.63;49.00
63306;BME280;50735;52.060;1.248;2022-09-30T03:43:44;100607.96;;;8.79;49.02
63306;BME280;50735;52.060;1.248;2022-09-30T03:46:18;100609.09;;;8.79;49.02
63306;BME280;50735;52.060;1.248;2022-09-30T03:48:50;100609.27;;;8.59;48.82
63306;BME280;50735;52.060;1.248;2022-09-30T03:51:19;100609.04;;;8.77;48.74
63306;BME280;50735;52.060;1.248;2022-09-30T03:53:47;100609.64;;;8.76;48.71
63306;BME280;50735;52.060;1.248;2022-09-30T03:56:14;100612.13;;;8.72;48.80
63306;BME280;50735;52.060;1.248;2022-09-30T03:58:43;100613.82;;;8.71;49.88
63306;BME280;50735;52.060;1.248;2022-09-30T04:01:16;100613.97;;;8.68;49.74
63306;BME280;50735;52.060;1.248;2022-09-30T04:03:43;100613.77;;;8.71;50.17
63306;BME280;50735;52.060;1.248;2022-09-30T04:06:12;100612.28;;;8.73;50.04
63306;BME280;50735;52.060;1.248;2022-09-30T04:08:39;100611.00;;;8.94;49.96
63306;BME280;50735;52.060;1.248;2022-09-30T04:11:06;100610.42;;;8.71;49.79
63306;BME280;50735;52.060;1.248;2022-09-30T04:13:33;100608.66;;;8.72;50.52
63306;BME280;50735;52.060;1.248;2022-09-30T04:16:00;100607.94;;;8.67;49.90
63306;BME280;50735;52.060;1.248;2022-09-30T04:18:26;100608.72;;;8.42;50.38
63306;BME280;50735;52.060;1.248;2022-09-30T04:20:53;100605.98;;;8.64;50.41
63306;BME280;50735;52.060;1.248;2022-09-30T04:23:20;100607.75;;;8.65;50.41
63306;BME280;50735;52.060;1.248;2022-09-30T04:25:51;100603.36;;;8.49;50.35
63306;BME280;50735;52.060;1.248;2022-09-30T04:28:18;100604.53;;;8.69;50.21
63306;BME280;50735;52.060;1.248;2022-09-30T04:30:44;100606.13;;;8.66;50.20
63306;BME280;50735;52.060;1.248;2022-09-30T04:33:11;100608.67;;;8.58;50.06
63306;BME280;50735;52.060;1.248;2022-09-30T04:35:38;100613.53;;;8.37;50.09
63306;BME280;50735;52.060;1.248;2022-09-30T04:38:05;100610.80;;;8.55;50.41
63306;BME280;50735;52.060;1.248;2022-09-30T04:40:35;100611.56;;;8.54;50.27
63306;BME280;50735;52.060;1.248;2022-09-30T04:43:02;100606.76;;;8.51;50.36
63306;BME280;50735;52.060;1.248;2022-09-30T04:45:29;100609.49;;;8.47;50.51
63306;BME280;50735;52.060;1.248;2022-09-30T04:47:56;100609.81;;;8.43;52.15
63306;BME280;50735;52.060;1.248;2022-09-30T04:50:22;100610.03;;;8.33;52.07
63306;BME280;50735;52.060;1.248;2022-09-30T04:52:49;100612.26;;;8.34;52.33
63306;BME280;50735;52.060;1.248;2022-09-30T04:55:16;100618.29;;;8.21;53.05
63306;BME280;50735;52.060;1.248;2022-09-30T04:57:44;100614.28;;;8.10;53.58
63306;BME280;50735;52.060;1.248;2022-09-30T05:00:11;100611.45;;;8.20;53.15
63306;BME280;50735;52.060;1.248;2022-09-30T05:02:38;100611.16;;;8.24;52.61
63306;BME280;50735;52.060;1.248;2022-09-30T05:05:06;100614.20;;;8.19;53.43
63306;BME280;50735;52.060;1.248;2022-09-30T05:07:33;100615.84;;;8.37;54.15
63306;BME280;50735;52.060;1.248;2022-09-30T05:10:00;100617.79;;;8.12;53.13
63306;BME280;50735;52.060;1.248;2022-09-30T05:12:26;100622.89;;;8.15;53.10
63306;BME280;50735;52.060;1.248;2022-09-30T05:14:53;100621.56;;;8.06;53.06
63306;BME280;50735;52.060;1.248;2022-09-30T05:17:20;100622.78;;;8.12;53.28
63306;BME280;50735;52.060;1.248;2022-09-30T05:19:47;100619.13;;;8.13;52.29
63306;BME280;50735;52.060;1.248;2022-09-30T05:22:14;100617.01;;;8.15;52.21
63306;BME280;50735;52.060;1.248;2022-09-30T05:24:41;100615.13;;;8.05;53.47
63306;BME280;50735;52.060;1.248;2022-09-30T05:27:08;100611.96;;;7.86;53.62
63306;BME280;50735;52.060;1.248;2022-09-30T05:29:35;100609.20;;;7.81;53.04
63306;BME280;50735;52.060;1.248;2022-09-30T05:32:02;100604.09;;;7.83;53.03
63306;BME280;50735;52.060;1.248;2022-09-30T05:34:29;100606.09;;;7.62;53.55
63306;BME280;50735;52.060;1.248;2022-09-30T05:36:56;100604.74;;;7.53;53.39
63306;BME280;50735;52.060;1.248;2022-09-30T05:39:23;100607.88;;;7.12;54.87
63306;BME280;50735;52.060;1.248;2022-09-30T05:41:49;100614.96;;;7.43;54.59
63306;BME280;50735;52.060;1.248;2022-09-30T05:44:16;100614.34;;;6.94;54.73
63306;BME280;50735;52.060;1.248;2022-09-30T05:46:43;100615.46;;;7.12;54.92
63306;BME280;50735;52.060;1.248;2022-09-30T05:49:10;100616.49;;;7.22;54.82
63306;BME280;50735;52.060;1.248;2022-09-30T05:51:37;100616.59;;;7.18;55.80
63306;BME280;50735;52.060;1.248;2022-09-30T05:54:03;100618.47;;;7.38;54.97
63306;BME280;50735;52.060;1.248;2022-09-30T05:56:30;100618.77;;;6.85;55.52
63306;BME280;50735;52.060;1.248;2022-09-30T05:58:56;100620.68;;;6.93;55.34
63306;BME280;50735;52.060;1.248;2022-09-30T06:01:23;100622.42;;;7.07;56.19
63306;BME280;50735;52.060;1.248;2022-09-30T06:03:50;100621.70;;;7.08;56.71
63306;BME280;50735;52.060;1.248;2022-09-30T06:06:17;100627.36;;;7.22;56.75
63306;BME280;50735;52.060;1.248;2022-09-30T06:08:44;100623.10;;;6.88;55.82
63306;BME280;50735;52.060;1.248;2022-09-30T06:11:13;100616.69;;;7.41;55.72
63306;BME280;50735;52.060;1.248;2022-09-30T06:13:41;100612.10;;;7.56;57.16
63306;BME280;50735;52.060;1.248;2022-09-30T06:16:10;100612.47;;;7.57;56.17
63306;BME280;50735;52.060;1.248;2022-09-30T06:18:37;100612.41;;;7.32;55.60
63306;BME280;50735;52.060;1.248;2022-09-30T06:21:04;100617.07;;;7.39;55.84
63306;BME280;50735;52.060;1.248;2022-09-30T06:23:31;100624.87;;;6.98;56.63
63306;BME280;50735;52.060;1.248;2022-09-30T06:25:58;100619.48;;;6.86;56.67
63306;BME280;50735;52.060;1.248;2022-09-30T06:28:25;100617.04;;;6.89;58.04
63306;BME280;50735;52.060;1.248;2022-09-30T06:30:53;100613.49;;;7.31;56.72
63306;BME280;50735;52.060;1.248;2022-09-30T06:33:20;100616.40;;;7.04;56.19
63306;BME280;50735;52.060;1.248;2022-09-30T06:35:47;100614.54;;;7.31;56.32
63306;BME280;50735;52.060;1.248;2022-09-30T06:38:14;100612.12;;;7.35;56.01
63306;BME280;50735;52.060;1.248;2022-09-30T06:40:41;100610.88;;;7.35;55.81
63306;BME280;50735;52.060;1.248;2022-09-30T06:43:09;100606.19;;;7.11;56.19
63306;BME280;50735;52.060;1.248;2022-09-30T06:45:36;100607.94;;;7.20;56.87
63306;BME280;50735;52.060;1.248;2022-09-30T06:48:04;100608.25;;;7.34;59.69
63306;BME280;50735;52.060;1.248;2022-09-30T06:50:32;100602.73;;;7.44;56.22
63306;BME280;50735;52.060;1.248;2022-09-30T06:53:00;100602.76;;;6.98;57.78
63306;BME280;50735;52.060;1.248;2022-09-30T06:55:28;100591.40;;;7.15;56.98
63306;BME280;50735;52.060;1.248;2022-09-30T06:57:56;100589.54;;;7.47;56.19
63306;BME280;50735;52.060;1.248;2022-09-30T07:00:23;100584.33;;;7.33;55.45
63306;BME280;50735;52.060;1.248;2022-09-30T07:02:53;100582.88;;;7.82;55.19
63306;BME280;50735;52.060;1.248;2022-09-30T07:05:19;100580.16;;;7.41;55.19
63306;BME280;50735;52.060;1.248;2022-09-30T07:07:46;100577.25;;;7.87;54.88
63306;BME280;50735;52.060;1.248;2022-09-30T07:10:13;100580.04;;;7.60;55.35
63306;BME280;50735;52.060;1.248;2022-09-30T07:12:40;100580.56;;;7.65;54.94
63306;BME280;50735;52.060;1.248;2022-09-30T07:15:07;100585.69;;;7.51;55.43
63306;BME280;50735;52.060;1.248;2022-09-30T07:17:34;100589.82;;;7.59;55.46
63306;BME280;50735;52.060;1.248;2022-09-30T07:20:01;100586.61;;;7.38;55.41
63306;BME280;50735;52.060;1.248;2022-09-30T07:22:27;100584.01;;;7.38;55.67
63306;BME280;50735;52.060;1.248;2022-09-30T07:24:56;100579.01;;;7.63;54.93
63306;BME280;50735;52.060;1.248;2022-09-30T07:27:24;100583.22;;;7.90;54.45
63306;BME280;50735;52.060;1.248;2022-09-30T07:29:51;100584.01;;;8.04;55.76
63306;BME280;50735;52.060;1.248;2022-09-30T07:32:20;100576.96;;;7.69;55.77
63306;BME280;50735;52.060;1.248;2022-09-30T07:34:47;100580.32;;;7.42;56.31
63306;BME280;50735;52.060;1.248;2022-09-30T07:37:16;100582.18;;;7.47;56.60
63306;BME280;50735;52.060;1.248;2022-09-30T07:39:44;100581.84;;;7.45;55.97
63306;BME280;50735;52.060;1.248;2022-09-30T07:42:13;100575.45;;;8.02;55.20
63306;BME280;50735;52.060;1.248;2022-09-30T07:44:41;100575.11;;;8.20;54.85
63306;BME280;50735;52.060;1.248;2022-09-30T07:47:09;100579.10;;;8.13;55.32
63306;BME280;50735;52.060;1.248;2022-09-30T07:49:37;100578.40;;;8.22;55.10
63306;BME280;50735;52.060;1.248;2022-09-30T07:52:04;100576.89;;;8.32;54.87
63306;BME280;50735;52.060;1.248;2022-09-30T07:54:32;100578.20;;;8.13;55.55
63306;BME280;50735;52.060;1.248;2022-09-30T07:57:01;100577.18;;;8.08;55.81
63306;BME280;50735;52.060;1.248;2022-09-30T07:59:29;100577.35;;;8.15;55.45
63306;BME280;50735;52.060;1.248;2022-09-30T08:01:56;100577.19;;;8.40;55.12
63306;BME280;50735;52.060;1.248;2022-09-30T08:04:24;100584.48;;;8.39;55.87
63306;BME280;50735;52.060;1.248;2022-09-30T08:06:53;100586.74;;;8.27;56.22
63306;BME280;50735;52.060;1.248;2022-09-30T08:09:23;100590.03;;;8.52;56.26
63306;BME280;50735;52.060;1.248;2022-09-30T08:11:50;100588.78;;;8.57;56.29
63306;BME280;50735;52.060;1.248;2022-09-30T08:14:20;100591.32;;;8.60;55.98
63306;BME280;50735;52.060;1.248;2022-09-30T08:16:47;100593.92;;;8.34;56.50
63306;BME280;50735;52.060;1.248;2022-09-30T08:19:17;100597.43;;;8.52;55.94
63306;BME280;50735;52.060;1.248;2022-09-30T08:21:44;100596.69;;;9.15;55.90
63306;BME280;50735;52.060;1.248;2022-09-30T08:24:12;100594.98;;;9.19;55.35
63306;BME280;50735;52.060;1.248;2022-09-30T08:26:39;100596.48;;;9.04;55.05
63306;BME280;50735;52.060;1.248;2022-09-30T08:29:06;100596.50;;;9.30;54.73
63306;BME280;50735;52.060;1.248;2022-09-30T08:31:33;100595.45;;;9.25;54.90
63306;BME280;50735;52.060;1.248;2022-09-30T08:34:00;100588.06;;;8.87;56.48
63306;BME280;50735;52.060;1.248;2022-09-30T08:36:26;100588.12;;;8.76;56.91
63306;BME280;50735;52.060;1.248;2022-09-30T08:38:53;100588.97;;;9.02;56.17
63306;BME280;50735;52.060;1.248;2022-09-30T08:41:29;100585.78;;;9.34;56.08
63306;BME280;50735;52.060;1.248;2022-09-30T08:44:08;100581.77;;;9.35;56.79
63306;BME280;50735;52.060;1.248;2022-09-30T08:46:45;100582.74;;;9.19;56.89
63306;BME280;50735;52.060;1.248;2022-09-30T08:49:28;100579.06;;;9.10;56.69
63306;BME280;50735;52.060;1.248;2022-09-30T08:51:57;100576.08;;;9.63;55.85
63306;BME280;50735;52.060;1.248;2022-09-30T08:54:32;100575.99;;;9.57;56.43
63306;BME280;50735;52.060;1.248;2022-09-30T08:57:02;100572.68;;;9.13;57.17
63306;BME280;50735;52.060;1.248;2022-09-30T08:59:32;100575.17;;;9.75;56.30
63306;BME280;50735;52.060;1.248;2022-09-30T09:02:13;100573.45;;;9.79;56.06
63306;BME280;50735;52.060;1.248;2022-09-30T09:04:41;100571.18;;;9.84;55.86
63306;BME280;50735;52.060;1.248;2022-09-30T09:07:18;100560.78;;;10.44;55.11
63306;BME280;50735;52.060;1.248;2022-09-30T09:10:02;100555.87;;;10.34;54.89
63306;BME280;50735;52.060;1.248;2022-09-30T09:12:43;100549.45;;;10.80;54.31
63306;BME280;50735;52.060;1.248;2022-09-30T09:15:20;100555.06;;;10.84;54.41
63306;BME280;50735;52.060;1.248;2022-09-30T09:18:00;100560.15;;;10.89;54.36
63306;BME280;50735;52.060;1.248;2022-09-30T09:20:32;100566.10;;;10.60;55.63
63306;BME280;50735;52.060;1.248;2022-09-30T09:23:03;100562.19;;;10.62;55.20
63306;BME280;50735;52.060;1.248;2022-09-30T09:25:33;100556.53;;;10.22;55.59
63306;BME280;50735;52.060;1.248;2022-09-30T09:28:02;100560.67;;;10.48;55.72
63306;BME280;50735;52.060;1.248;2022-09-30T09:30:35;100554.28;;;10.53;55.75
63306;BME280;50735;52.060;1.248;2022-09-30T09:33:14;100556.95;;;10.22;56.61
63306;BME280;50735;52.060;1.248;2022-09-30T09:35:48;100564.85;;;10.46;56.37
63306;BME280;50735;52.060;1.248;2022-09-30T09:38:23;100578.34;;;9.91;57.68
63306;BME280;50735;52.060;1.248;2022-09-30T09:41:03;100572.23;;;9.78;57.97
63306;BME280;50735;52.060;1.248;2022-09-30T09:43:44;100567.89;;;10.07;57.44
63306;BME280;50735;52.060;1.248;2022-09-30T09:46:20;100573.88;;;10.19;57.44
63306;BME280;50735;52.060;1.248;2022-09-30T09:48:48;100564.49;;;10.30;57.08
63306;BME280;50735;52.060;1.248;2022-09-30T09:51:21;100560.40;;;10.29;56.98
63306;BME280;50735;52.060;1.248;2022-09-30T09:53:53;100562.92;;;10.10;57.44
63306;BME280;50735;52.060;1.248;2022-09-30T09:56:21;100558.72;;;9.94;57.73
63306;BME280;50735;52.060;1.248;2022-09-30T09:59:11;100561.68;;;9.61;58.42
63306;BME280;50735;52.060;1.248;2022-09-30T10:01:40;100567.53;;;9.57;58.44
63306;BME280;50735;52.060;1.248;2022-09-30T10:04:10;100566.39;;;9.33;59.41
63306;BME280;50735;52.060;1.248;2022-09-30T10:06:44;100565.50;;;9.03;59.50
63306;BME280;50735;52.060;1.248;2022-09-30T10:09:22;100553.30;;;9.16;59.57
63306;BME280;50735;52.060;1.248;2022-09-30T10:11:50;100549.42;;;9.31;59.69
63306;BME280;50735;52.060;1.248;2022-09-30T10:14:19;100559.43;;;9.30;60.18
63306;BME280;50735;52.060;1.248;2022-09-30T10:16:47;100549.43;;;9.02;60.71
63306;BME280;50735;52.060;1.248;2022-09-30T10:19:19;100538.24;;;9.14;60.42
63306;BME280;50735;52.060;1.248;2022-09-30T10:21:47;100533.34;;;9.09;60.81
63306;BME280;50735;52.060;1.248;2022-09-30T10:24:19;100527.39;;;9.21;61.05
63306;BME280;50735;52.060;1.248;2022-09-30T10:26:51;100522.97;;;9.44;60.41
63306;BME280;50735;52.060;1.248;2022-09-30T10:29:31;100519.79;;;9.83;59.60
63306;BME280;50735;52.060;1.248;2022-09-30T10:31:59;100520.87;;;10.18;59.14
63306;BME280;50735;52.060;1.248;2022-09-30T10:34:29;100515.76;;;10.40;58.28
63306;BME280;50735;52.060;1.248;2022-09-30T10:37:01;100525.36;;;10.23;59.63
63306;BME280;50735;52.060;1.248;2022-09-30T10:39:34;100518.85;;;10.72;58.38
63306;BME280;50735;52.060;1.248;2022-09-30T10:42:05;100509.68;;;11.06;57.50
63306;BME280;50735;52.060;1.248;2022-09-30T10:44:40;100506.55;;;11.15;56.87
63306;BME280;50735;52.060;1.248;2022-09-30T10:47:08;100501.45;;;11.32;56.87
63306;BME280;50735;52.060;1.248;2022-09-30T10:49:45;100501.25;;;11.32;56.68
63306;BME280;50735;52.060;1.248;2022-09-30T10:52:18;100493.77;;;11.74;56.38
63306;BME280;50735;52.060;1.248;2022-09-30T10:54:49;100479.14;;;11.66;55.98
63306;BME280;50735;52.060;1.248;2022-09-30T10:57:19;100479.83;;;11.97;55.13
63306;BME280;50735;52.060;1.248;2022-09-30T10:59:47;100477.03;;;12.27;54.79
63306;BME280;50735;52.060;1.248;2022-09-30T11:02:22;100479.31;;;12.33;54.94
63306;BME280;50735;52.060;1.248;2022-09-30T11:04:58;100469.08;;;12.40;54.78
63306;BME280;50735;52.060;1.248;2022-09-30T11:07:30;100466.10;;;12.59;54.81
63306;BME280;50735;52.060;1.248;2022-09-30T11:10:02;100460.11;;;12.81;53.99
63306;BME280;50735;52.060;1.248;2022-09-30T11:12:37;100460.54;;;12.77;53.99
63306;BME280;50735;52.060;1.248;2022-09-30T11:15:12;100457.33;;;12.98;53.77
63306;BME280;50735;52.060;1.248;2022-09-30T11:17:49;100445.35;;;13.01;53.69
63306;BME280;50735;52.060;1.248;2022-09-30T11:20:22;100439.35;;;13.10;53.62
63306;BME280;50735;52.060;1.248;2022-09-30T11:22:56;100436.66;;;12.68;54.67
63306;BME280;50735;52.060;1.248;2022-09-30T11:25:34;100434.92;;;12.41;54.40
63306;BME280;50735;52.060;1.248;2022-09-30T11:28:26;100425.12;;;12.55;53.81
63306;BME280;50735;52.060;1.248;2022-09-30T11:31:05;100422.79;;;12.62;54.03
63306;BME280;50735;52.060;1.248;2022-09-30T11:33:42;100419.53;;;12.65;53.30
63306;BME280;50735;52.060;1.248;2022-09-30T11:36:25;100413.02;;;13.03;52.75
63306;BME280;50735;52.060;1.248;2022-09-30T11:39:12;100406.46;;;12.66;52.68
63306;BME280;50735;52.060;1.248;2022-09-30T11:41:46;100407.48;;;13.25;51.80
63306;BME280;50735;52.060;1.248;2022-09-30T11:44:25;100400.07;;;13.14;51.94
63306;BME280;50735;52.060;1.248;2022-09-30T11:47:04;100398.92;;;13.06;52.41
63306;BME280;50735;52.060;1.248;2022-09-30T11:49:43;100391.03;;;12.93;52.01
63306;BME280;50735;52.060;1.248;2022-09-30T11:52:18;100389.56;;;13.47;51.42
63306;BME280;50735;52.060;1.248;2022-09-30T11:55:01;100383.78;;;13.23;51.48
63306;BME280;50735;52.060;1.248;2022-09-30T11:57:34;100381.55;;;13.18;51.00
63306;BME280;50735;52.060;1.248;2022-09-30T12:00:11;100372.85;;;13.50;50.53
63306;BME280;50735;52.060;1.248;2022-09-30T12:02:42;100366.93;;;13.68;49.73
63306;BME280;50735;52.060;1.248;2022-09-30T12:05:11;100366.74;;;13.66;49.72
63306;BME280;50735;52.060;1.248;2022-09-30T12:07:43;100363.69;;;13.62;49.46
63306;BME280;50735;52.060;1.248;2022-09-30T12:10:18;100357.30;;;13.57;49.37
63306;BME280;50735;52.060;1.248;2022-09-30T12:12:50;100346.41;;;13.70;48.92
63306;BME280;50735;52.060;1.248;2022-09-30T12:15:21;100342.41;;;13.77;48.69
63306;BME280;50735;52.060;1.248;2022-09-30T12:17:54;100339.80;;;13.67;48.06
63306;BME280;50735;52.060;1.248;2022-09-30T12:20:26;100333.16;;;13.55;48.08
63306;BME280;50735;52.060;1.248;2022-09-30T12:22:57;100318.78;;;13.24;48.07
63306;BME280;50735;52.060;1.248;2022-09-30T12:25:29;100311.20;;;13.18;46.64
63306;BME280;50735;52.060;1.248;2022-09-30T12:28:02;100311.59;;;13.30;46.37
63306;BME280;50735;52.060;1.248;2022-09-30T12:30:31;100312.26;;;13.05;45.43
63306;BME280;50735;52.060;1.248;2022-09-30T12:33:15;100302.08;;;13.37;44.67
63306;BME280;50735;52.060;1.248;2022-09-30T12:35:59;100311.29;;;13.20;44.10
63306;BME280;50735;52.060;1.248;2022-09-30T12:38:45;100300.57;;;13.54;43.53
63306;BME280;50735;52.060;1.248;2022-09-30T12:41:28;100292.91;;;13.73;43.04
63306;BME280;50735;52.060;1.248;2022-09-30T12:44:22;100283.90;;;13.94;42.80
63306;BME280;50735;52.060;1.248;2022-09-30T12:47:06;100291.52;;;13.38;42.98
63306;BME280;50735;52.060;1.248;2022-09-30T12:49:37;100277.95;;;13.60;43.30
63306;BME280;50735;52.060;1.248;2022-09-30T12:52:10;100268.84;;;13.89;42.59
63306;BME280;50735;52.060;1.248;2022-09-30T12:54:40;100271.63;;;13.44;42.48
63306;BME280;50735;52.060;1.248;2022-09-30T12:57:08;100263.54;;;13.11;42.67
63306;BME280;50735;52.060;1.248;2022-09-30T12:59:38;100277.00;;;13.45;42.78
63306;BME280;50735;52.060;1.248;2022-09-30T13:02:25;100267.81;;;13.68;42.97
63306;BME280;50735;52.060;1.248;2022-09-30T13:04:54;100257.90;;;13.65;43.27
63306;BME280;50735;52.060;1.248;2022-09-30T13:08:22;100258.87;;;13.45;43.36
63306;BME280;50735;52.060;1.248;2022-09-30T13:10:56;100251.55;;;13.55;43.33
63306;BME280;50735;52.060;1.248;2022-09-30T13:13:25;100244.43;;;13.82;43.36
63306;BME280;50735;52.060;1.248;2022-09-30T13:15:52;100240.85;;;13.47;43.75
63306;BME280;50735;52.060;1.248;2022-09-30T13:19:32;100241.46;;;13.44;44.21
63306;BME280;50735;52.060;1.248;2022-09-30T13:22:41;100247.84;;;13.52;44.98